createdAt,value
2023-04-18T05:30:53.340Z,11.90
2023-04-18T05:33:21.637Z,13.90
2023-04-18T05:35:48.689Z,13.98
2023-04-18T05:38:16.230Z,13.55
2023-04-18T05:40:43.937Z,13.38
2023-04-18T05:43:11.715Z,14.77
2023-04-18T05:45:39.468Z,13.13
2023-04-18T05:48:07.292Z,14.13
2023-04-18T05:50:34.885Z,13.63
2023-04-18T05:53:02.543Z,12.65
2023-04-18T05:55:31.983Z,14.27
2023-04-18T05:58:01.392Z,13.75
2023-04-18T06:00:28.689Z,13.02
2023-04-18T06:02:56.867Z,12.05
2023-04-18T06:05:24.946Z,13.35
2023-04-18T06:07:53.247Z,12.55
2023-04-18T06:10:22.099Z,13.23
2023-04-18T06:12:51.780Z,12.48
2023-04-18T06:15:20.791Z,13.05
2023-04-18T06:17:51.390Z,13.13
2023-04-18T06:20:28.767Z,11.50
2023-04-18T06:22:57.063Z,11.95
2023-04-18T06:25:26.046Z,12.43
2023-04-18T06:27:55.804Z,12.77
2023-04-18T06:30:25.790Z,12.00
2023-04-18T06:32:53.930Z,12.63
2023-04-18T06:35:24.597Z,13.25
2023-04-18T06:37:55.066Z,12.98
2023-04-18T06:40:25.606Z,12.90
2023-04-18T06:42:54.020Z,10.70
2023-04-18T06:45:22.243Z,11.85
2023-04-18T06:47:52.615Z,11.52
2023-04-18T06:50:20.902Z,11.45
2023-04-18T06:52:49.264Z,11.73
2023-04-18T06:55:23.920Z,10.60
2023-04-18T06:57:52.536Z,12.30
2023-04-18T07:00:21.002Z,14.05
2023-04-18T07:02:49.466Z,12.38
2023-04-18T07:05:19.384Z,11.50
2023-04-18T07:07:47.544Z,11.18
2023-04-18T07:10:16.079Z,13.15
2023-04-18T07:12:44.787Z,11.57
2023-04-18T07:15:13.550Z,11.57
2023-04-18T07:17:42.117Z,11.77
2023-04-18T07:20:13.000Z,11.13
2023-04-18T07:22:49.174Z,11.57
2023-04-18T07:25:24.572Z,12.35
2023-04-18T07:27:53.444Z,11.65
2023-04-18T07:30:25.213Z,11.90
2023-04-18T07:32:53.470Z,12.53
2023-04-18T07:35:21.804Z,12.27
2023-04-18T07:37:49.653Z,11.38
2023-04-18T07:40:21.952Z,11.98
2023-04-18T07:42:50.417Z,10.43
2023-04-18T07:45:18.220Z,11.88
2023-04-18T07:47:47.221Z,11.88
2023-04-18T07:50:15.303Z,10.60
2023-04-18T07:52:42.969Z,10.65
2023-04-18T07:55:11.465Z,11.50
2023-04-18T07:57:53.808Z,11.10
2023-04-18T08:00:24.590Z,11.68
2023-04-18T08:02:56.106Z,11.32
2023-04-18T08:05:24.531Z,12.88
2023-04-18T08:07:53.016Z,12.10
2023-04-18T08:10:23.261Z,12.20
2023-04-18T08:12:51.571Z,11.73
2023-04-18T08:15:19.635Z,10.50
2023-04-18T08:17:49.173Z,11.77
2023-04-18T08:20:16.800Z,12.32
2023-04-18T08:22:57.469Z,12.40
2023-04-18T08:25:32.321Z,10.95
2023-04-18T08:28:00.027Z,14.30
2023-04-18T08:30:27.860Z,11.90
2023-04-18T08:32:56.474Z,13.02
2023-04-18T08:35:24.781Z,11.45
2023-04-18T08:37:52.778Z,9.98
2023-04-18T08:40:21.166Z,11.25
2023-04-18T08:42:49.199Z,11.23
2023-04-18T08:45:21.897Z,10.18
2023-04-18T08:47:49.837Z,11.88
2023-04-18T08:50:18.741Z,12.15
2023-04-18T08:52:50.212Z,11.65
2023-04-18T08:55:19.244Z,11.18
2023-04-18T08:57:47.705Z,12.63
2023-04-18T09:00:17.682Z,11.25
2023-04-18T09:02:46.940Z,11.50
2023-04-18T09:05:18.911Z,12.70
2023-04-18T09:07:53.314Z,11.40
2023-04-18T09:10:33.599Z,11.75
2023-04-18T09:13:06.539Z,10.93
2023-04-18T09:18:04.658Z,11.00
2023-04-18T09:20:35.988Z,10.98
2023-04-18T09:23:11.643Z,11.73
2023-04-18T09:25:44.547Z,11.07
2023-04-18T09:28:42.888Z,13.02
2023-04-18T09:31:13.166Z,11.95
2023-04-18T09:33:44.881Z,12.05
2023-04-18T09:36:22.481Z,12.30
2023-04-18T09:38:56.561Z,14.07
2023-04-18T09:41:49.478Z,13.65
2023-04-18T09:44:23.070Z,13.52
2023-04-18T09:46:55.355Z,12.48
2023-04-18T09:49:24.373Z,13.32
2023-04-18T09:51:53.679Z,12.07
2023-04-18T09:54:26.058Z,11.88
2023-04-18T09:56:55.360Z,11.65
2023-04-18T09:59:42.913Z,11.27
2023-04-18T10:02:21.140Z,10.10
2023-04-18T10:04:52.235Z,12.25
2023-04-18T10:07:22.133Z,11.52
2023-04-18T10:09:50.165Z,11.57
2023-04-18T10:12:19.030Z,10.65
2023-04-18T10:14:50.157Z,10.77
2023-04-18T10:17:19.802Z,11.20
2023-04-18T10:19:50.225Z,12.57
2023-04-18T10:22:27.472Z,11.55
2023-04-18T10:24:56.340Z,12.07
2023-04-18T10:27:49.035Z,10.75
2023-04-18T10:30:19.698Z,10.45
2023-04-18T10:33:05.816Z,10.73
2023-04-18T10:35:36.652Z,10.95
2023-04-18T10:38:04.442Z,11.07
2023-04-18T10:40:35.245Z,11.70
2023-04-18T10:43:03.125Z,10.95
2023-04-18T10:45:36.391Z,10.60
2023-04-18T10:48:29.587Z,11.05
2023-04-18T10:51:18.734Z,13.85
2023-04-18T10:53:55.146Z,12.32
2023-04-18T10:56:22.675Z,10.80
2023-04-18T10:58:51.531Z,9.85
2023-04-18T11:01:32.741Z,11.52
2023-04-18T11:04:01.324Z,10.93
2023-04-18T11:06:31.644Z,11.10
2023-04-18T11:09:12.531Z,9.27
2023-04-18T11:11:41.657Z,11.00
2023-04-18T11:14:09.582Z,10.00
2023-04-18T11:16:38.380Z,9.98
2023-04-18T11:19:23.284Z,10.05
2023-04-18T11:21:52.578Z,10.25
2023-04-18T11:24:24.278Z,10.43
2023-04-18T11:26:55.793Z,9.70
2023-04-18T11:29:24.066Z,11.00
2023-04-18T11:31:55.836Z,9.50
2023-04-18T11:34:30.485Z,9.27
2023-04-18T11:36:58.441Z,8.38
2023-04-18T11:39:25.951Z,9.40
2023-04-18T11:41:56.088Z,10.23
2023-04-18T11:44:25.186Z,9.32
2023-04-18T11:46:53.603Z,8.52
2023-04-18T11:49:32.468Z,8.88
2023-04-18T11:52:01.679Z,9.27
2023-04-18T11:54:45.486Z,8.98
2023-04-18T11:57:21.848Z,9.40
2023-04-18T11:59:59.803Z,8.57
2023-04-18T12:02:46.075Z,9.85
2023-04-18T12:05:35.259Z,9.25
2023-04-18T12:08:21.742Z,7.65
2023-04-18T12:10:51.758Z,9.38
2023-04-18T12:13:24.845Z,8.98
2023-04-18T12:15:52.311Z,7.82
2023-04-18T12:18:19.893Z,10.10
2023-04-18T12:20:52.487Z,9.20
2023-04-18T12:23:37.700Z,9.30
2023-04-18T12:26:07.220Z,9.10
2023-04-18T12:28:35.430Z,8.32
2023-04-18T12:31:05.461Z,9.15
2023-04-18T12:33:33.601Z,10.60
2023-04-18T12:36:00.933Z,8.88
2023-04-18T12:38:28.459Z,10.00
2023-04-18T12:40:56.086Z,9.02
2023-04-18T12:43:23.289Z,8.27
2023-04-18T12:45:50.792Z,9.02
2023-04-18T12:48:18.128Z,9.70
2023-04-18T12:50:45.295Z,8.45
2023-04-18T12:53:12.470Z,10.00
2023-04-18T12:55:40.015Z,8.73
2023-04-18T12:58:07.421Z,8.52
2023-04-18T13:00:35.101Z,9.30
2023-04-18T13:03:02.449Z,7.65
2023-04-18T13:05:33.550Z,7.60
2023-04-18T13:10:31.933Z,7.85
2023-04-18T13:12:59.552Z,7.43
2023-04-18T13:15:27.645Z,7.53
2023-04-18T13:18:04.453Z,8.00
2023-04-18T13:20:33.205Z,7.15
2023-04-18T13:23:01.050Z,7.95
2023-04-18T13:25:28.605Z,8.35
2023-04-18T13:27:57.501Z,7.45
2023-04-18T13:30:24.970Z,5.75
2023-04-18T13:32:52.051Z,8.38
2023-04-18T13:35:19.714Z,6.97
2023-04-18T13:37:47.412Z,6.53
2023-04-18T13:40:15.620Z,6.20
2023-04-18T13:42:43.838Z,6.20
2023-04-18T13:45:11.331Z,6.57
2023-04-18T13:47:39.439Z,5.72
2023-04-18T13:50:07.436Z,5.72
2023-04-18T13:52:35.293Z,6.07
2023-04-18T13:55:03.766Z,5.75
2023-04-18T13:57:32.308Z,5.03
2023-04-18T13:59:59.889Z,5.30
2023-04-18T14:02:27.636Z,4.57
2023-04-18T14:04:55.489Z,3.92
2023-04-18T14:07:26.404Z,4.30
2023-04-18T14:09:54.080Z,3.55
2023-04-18T14:12:21.728Z,4.57
2023-04-18T14:14:49.914Z,3.65
2023-04-18T14:17:17.693Z,4.13
2023-04-18T14:19:45.046Z,4.85
2023-04-18T14:22:12.327Z,5.18
2023-04-18T14:24:39.901Z,4.30
2023-04-18T14:27:08.055Z,4.18
2023-04-18T14:29:35.507Z,4.93
2023-04-18T14:32:02.917Z,4.80
2023-04-18T14:34:32.728Z,5.30
2023-04-18T14:37:01.150Z,5.10
2023-04-18T14:39:28.474Z,5.55
2023-04-18T14:41:55.888Z,4.43
2023-04-18T14:44:23.182Z,4.80
2023-04-18T14:46:50.780Z,6.43
2023-04-18T14:49:18.344Z,4.78
2023-04-18T14:51:45.484Z,5.13
2023-04-18T14:54:13.360Z,5.22
2023-04-18T14:56:40.616Z,5.63
2023-04-18T14:59:07.979Z,4.97
2023-04-18T15:01:35.726Z,5.20
2023-04-18T15:04:04.377Z,5.30
2023-04-18T15:06:32.611Z,4.70
2023-04-18T15:09:00.627Z,5.28
2023-04-18T15:11:27.737Z,5.15
2023-04-18T15:13:55.472Z,4.25
2023-04-18T15:16:22.959Z,5.65
2023-04-18T15:18:50.019Z,5.18
2023-04-18T15:21:17.280Z,5.15
2023-04-18T15:23:44.922Z,5.82
2023-04-18T15:26:12.378Z,5.43
2023-04-18T15:28:40.017Z,5.30
2023-04-18T15:31:07.593Z,5.45
2023-04-18T15:33:34.800Z,5.03
2023-04-18T15:36:02.043Z,4.68
2023-04-18T15:38:30.515Z,4.95
2023-04-18T15:40:59.466Z,5.53
2023-04-18T15:43:26.611Z,5.18
2023-04-18T15:45:54.240Z,4.63
2023-04-18T15:48:21.788Z,4.53
2023-04-18T15:50:52.375Z,4.80
2023-04-18T15:53:19.567Z,5.45
2023-04-18T15:55:46.907Z,5.22
2023-04-18T15:58:14.620Z,5.75
